createdAt,value
2022-09-28T00:00:17.922Z,96649.59
2022-09-28T00:02:44.573Z,96637.97
2022-09-28T00:05:12.701Z,96632.25
2022-09-28T00:07:39.543Z,96625.41
2022-09-28T00:10:11.921Z,96620.09
2022-09-28T00:12:39.228Z,96609.97
2022-09-28T00:15:06.070Z,96607.69
2022-09-28T00:17:33.612Z,96609.50
2022-09-28T00:20:00.300Z,96603.94
2022-09-28T00:22:28.395Z,96588.00
2022-09-28T00:24:54.813Z,96589.88
2022-09-28T00:27:21.424Z,96577.50
2022-09-28T00:29:48.520Z,96579.56
2022-09-28T00:32:16.636Z,96576.50
2022-09-28T00:34:45.897Z,96568.81
2022-09-28T00:37:14.205Z,96558.56
2022-09-28T00:39:44.364Z,96549.63
2022-09-28T00:42:15.367Z,96547.19
2022-09-28T00:44:49.997Z,96548.94
2022-09-28T00:47:49.471Z,96542.97
2022-09-28T00:50:18.324Z,96543.84
2022-09-28T00:52:49.243Z,96533.25
2022-09-28T00:55:19.284Z,96530.56
2022-09-28T00:57:49.808Z,96525.28
2022-09-28T01:00:16.724Z,96527.94
2022-09-28T01:02:44.364Z,96524.19
2022-09-28T01:05:11.537Z,96509.09
2022-09-28T01:07:39.055Z,96498.47
2022-09-28T01:10:06.028Z,96497.16
2022-09-28T01:12:32.548Z,96487.63
2022-09-28T01:15:00.534Z,96490.50
2022-09-28T01:17:48.850Z,96484.00
2022-09-28T01:20:29.162Z,96475.56
2022-09-28T01:23:13.060Z,96467.81
2022-09-28T01:25:55.863Z,96458.78
2022-09-28T01:28:29.940Z,96464.91
2022-09-28T01:31:07.690Z,96458.19
2022-09-28T01:33:41.481Z,96461.47
2022-09-28T01:36:15.688Z,96441.69
2022-09-28T01:38:43.552Z,96430.81
2022-09-28T01:41:10.447Z,96428.41
2022-09-28T01:43:40.852Z,96423.41
2022-09-28T01:46:18.274Z,96413.94
2022-09-28T01:49:31.246Z,96414.97
2022-09-28T01:52:01.512Z,96402.31
2022-09-28T01:54:40.308Z,96395.00
2022-09-28T01:57:22.971Z,96397.50
2022-09-28T01:59:57.749Z,96388.50
2022-09-28T02:02:27.659Z,96390.44
2022-09-28T02:04:58.646Z,96377.78
2022-09-28T02:07:34.673Z,96377.78
2022-09-28T02:10:07.363Z,96371.66
2022-09-28T02:12:58.404Z,96370.22
2022-09-28T02:15:37.150Z,96367.88
2022-09-28T02:18:03.897Z,96369.94
2022-09-28T02:20:32.085Z,96357.56
2022-09-28T02:22:59.657Z,96353.72
2022-09-28T02:25:49.806Z,96354.91
2022-09-28T02:28:18.027Z,96355.59
2022-09-28T02:30:45.088Z,96352.66
2022-09-28T02:33:20.403Z,96353.56
2022-09-28T02:35:47.255Z,96346.31
2022-09-28T02:38:14.985Z,96338.72
2022-09-28T02:40:44.313Z,96332.84
2022-09-28T02:43:20.052Z,96334.91
2022-09-28T02:46:28.469Z,96342.25
2022-09-28T02:49:34.970Z,96334.38
2022-09-28T02:52:12.304Z,96340.56
2022-09-28T02:54:44.912Z,96324.81
2022-09-28T02:57:30.451Z,96324.69
2022-09-28T02:59:59.799Z,96326.22
2022-09-28T03:02:29.575Z,96325.47
2022-09-28T03:04:59.093Z,96321.34
2022-09-28T03:07:46.949Z,96315.31
2022-09-28T03:10:18.105Z,96313.16
2022-09-28T03:12:46.354Z,96317.50
2022-09-28T03:15:28.819Z,96310.16
2022-09-28T03:17:57.557Z,96310.50
2022-09-28T03:20:25.411Z,96295.69
2022-09-28T03:23:12.377Z,96287.22
2022-09-28T03:25:39.691Z,96293.19
2022-09-28T03:28:06.324Z,96288.69
2022-09-28T03:30:35.820Z,96296.63
2022-09-28T03:33:03.130Z,96286.09
2022-09-28T03:35:31.763Z,96286.22
2022-09-28T03:37:58.372Z,96291.50
2022-09-28T03:40:27.324Z,96288.75
2022-09-28T03:42:54.084Z,96294.44
2022-09-28T03:45:20.624Z,96290.09
2022-09-28T03:47:49.085Z,96335.72
2022-09-28T03:50:15.971Z,96350.66
2022-09-28T03:52:42.873Z,96356.19
2022-09-28T03:55:10.804Z,96354.22
2022-09-28T03:57:37.485Z,96345.63
2022-09-28T04:00:05.092Z,96340.06
2022-09-28T04:02:40.429Z,96356.91
2022-09-28T04:05:07.634Z,96353.47
2022-09-28T04:07:34.223Z,96346.28
2022-09-28T04:10:01.078Z,96347.03
2022-09-28T04:12:27.678Z,96351.25
2022-09-28T04:14:54.274Z,96351.66
2022-09-28T04:17:20.866Z,96350.63
2022-09-28T04:19:47.997Z,96349.91
2022-09-28T04:22:33.548Z,96343.91
2022-09-28T04:25:00.552Z,96349.47
2022-09-28T04:27:45.905Z,96347.81
2022-09-28T04:30:12.734Z,96343.03
2022-09-28T04:32:40.928Z,96350.97
2022-09-28T04:35:08.652Z,96351.56
2022-09-28T04:37:35.327Z,96351.84
2022-09-28T04:40:02.139Z,96344.78
2022-09-28T04:42:30.629Z,96350.13
2022-09-28T04:44:58.809Z,96353.94
2022-09-28T04:47:25.357Z,96354.25
2022-09-28T04:50:15.681Z,96343.44
2022-09-28T04:53:05.253Z,96350.72
2022-09-28T04:55:32.648Z,96353.00
2022-09-28T04:58:02.662Z,96356.94
2022-09-28T05:00:35.232Z,96358.28
2022-09-28T05:03:10.748Z,96358.25
2022-09-28T05:05:56.075Z,96372.19
2022-09-28T05:08:43.414Z,96366.31
2022-09-28T05:11:11.801Z,96368.47
2022-09-28T05:13:43.392Z,96368.56
2022-09-28T05:16:11.141Z,96369.31
2022-09-28T05:18:57.648Z,96366.44
2022-09-28T05:21:26.293Z,96363.66
2022-09-28T05:23:56.035Z,96361.19
2022-09-28T05:26:23.267Z,96361.88
2022-09-28T05:28:49.959Z,96368.78
2022-09-28T05:31:35.275Z,96369.69
2022-09-28T05:34:30.931Z,96366.91
2022-09-28T05:36:57.624Z,96374.09
2022-09-28T05:39:24.221Z,96368.34
2022-09-28T05:41:50.739Z,96358.78
2022-09-28T05:44:17.463Z,96360.50
2022-09-28T05:46:44.245Z,96355.03
2022-09-28T05:49:12.919Z,96357.50
2022-09-28T05:51:39.556Z,96360.09
2022-09-28T05:54:06.459Z,96360.84
2022-09-28T05:56:35.737Z,96364.25
2022-09-28T05:59:06.219Z,96376.47
2022-09-28T06:01:32.923Z,96385.25
2022-09-28T06:04:01.459Z,96372.22
2022-09-28T06:06:28.058Z,96379.84
2022-09-28T06:08:56.296Z,96383.44
2022-09-28T06:11:43.101Z,96376.75
2022-09-28T06:14:21.582Z,96390.16
2022-09-28T06:16:48.181Z,96386.56
2022-09-28T06:19:14.956Z,96393.84
2022-09-28T06:21:58.401Z,96390.84
2022-09-28T06:24:26.001Z,96396.75
2022-09-28T06:26:52.792Z,96397.28
2022-09-28T06:29:20.388Z,96391.22
2022-09-28T06:31:47.557Z,96398.09
2022-09-28T06:34:14.292Z,96403.53
2022-09-28T06:36:41.086Z,96404.16
2022-09-28T06:39:08.725Z,96415.22
2022-09-28T06:41:36.517Z,96411.28
2022-09-28T06:44:12.943Z,96410.38
2022-09-28T06:47:01.225Z,96411.94
2022-09-28T06:49:47.724Z,96425.66
2022-09-28T06:52:37.028Z,96429.63
2022-09-28T06:55:09.264Z,96428.41
2022-09-28T06:57:43.708Z,96427.69
2022-09-28T07:00:11.351Z,96429.03
2022-09-28T07:02:38.013Z,96434.19
2022-09-28T07:05:29.607Z,96432.13
2022-09-28T07:08:19.856Z,96440.16
2022-09-28T07:11:07.630Z,96444.38
2022-09-28T07:13:50.362Z,96437.34
2022-09-28T07:16:24.160Z,96448.25
2022-09-28T07:18:53.280Z,96457.44
2022-09-28T07:21:28.717Z,96458.56
2022-09-28T07:23:56.911Z,96461.97
2022-09-28T07:26:24.756Z,96462.66
2022-09-28T07:29:13.138Z,96464.00
2022-09-28T07:31:59.077Z,96470.50
2022-09-28T07:34:44.597Z,96477.34
2022-09-28T07:37:27.768Z,96485.81
2022-09-28T07:40:13.101Z,96489.78
2022-09-28T07:42:39.770Z,96495.44
2022-09-28T07:45:07.318Z,96498.00
2022-09-28T07:47:35.295Z,96506.78
2022-09-28T07:50:18.079Z,96507.81
2022-09-28T07:53:05.947Z,96510.28
2022-09-28T07:55:52.540Z,96509.44
2022-09-28T07:58:37.821Z,96504.19
2022-09-28T08:01:27.846Z,96502.34
2022-09-28T08:03:56.334Z,96512.63
2022-09-28T08:06:23.772Z,96514.06
2022-09-28T08:08:51.482Z,96522.47
2022-09-28T08:11:19.776Z,96521.72
2022-09-28T08:14:12.240Z,96517.66
2022-09-28T08:16:53.358Z,96528.19
2022-09-28T08:20:04.683Z,96537.41
2022-09-28T08:22:32.419Z,96527.63
2022-09-28T08:25:00.289Z,96528.53
2022-09-28T08:27:26.904Z,96532.16
2022-09-28T08:29:53.835Z,96536.38
2022-09-28T08:32:46.721Z,96539.06
2022-09-28T08:35:58.514Z,96544.19
2022-09-28T08:38:47.975Z,96544.31
2022-09-28T08:42:09.103Z,96543.59
2022-09-28T08:44:59.248Z,96544.72
2022-09-28T08:48:14.250Z,96548.53
2022-09-28T08:51:17.243Z,96561.41
2022-09-28T08:54:39.919Z,96555.53
2022-09-28T08:57:19.480Z,96565.53
2022-09-28T08:59:55.740Z,96559.47
2022-09-28T09:02:33.508Z,96568.81
2022-09-28T09:05:19.056Z,96571.13
2022-09-28T09:08:08.069Z,96572.25
2022-09-28T09:11:02.885Z,96572.50
2022-09-28T09:14:00.083Z,96588.38
2022-09-28T09:16:49.283Z,96573.88
2022-09-28T09:19:54.571Z,96580.81
2022-09-28T09:22:39.256Z,96583.84
2022-09-28T09:25:18.087Z,96575.66
2022-09-28T09:27:55.712Z,96579.16
2022-09-28T09:30:25.677Z,96597.09
2022-09-28T09:33:24.119Z,96591.56
2022-09-28T09:36:47.451Z,96608.41
2022-09-28T09:40:25.613Z,96609.41
2022-09-28T09:43:19.867Z,96609.63
2022-09-28T09:46:12.220Z,96613.53
2022-09-28T09:49:04.581Z,96610.66
2022-09-28T09:51:41.941Z,96617.03
2022-09-28T09:54:25.610Z,96613.28
2022-09-28T09:57:03.715Z,96615.19
2022-09-28T09:59:59.120Z,96619.00
2022-09-28T10:02:42.277Z,96616.25
2022-09-28T10:05:29.879Z,96627.38
2022-09-28T10:08:03.737Z,96622.22
2022-09-28T10:10:36.027Z,96627.47
2022-09-28T10:13:08.745Z,96619.16
2022-09-28T10:15:36.488Z,96619.47
2022-09-28T10:18:32.419Z,96621.75
2022-09-28T10:21:26.609Z,96619.22
2022-09-28T10:24:02.534Z,96618.59
2022-09-28T10:26:41.772Z,96603.00
2022-09-28T10:29:17.869Z,96611.34
2022-09-28T10:31:52.839Z,96611.94
2022-09-28T10:34:28.764Z,96606.91
2022-09-28T10:37:01.162Z,96613.94
2022-09-28T10:39:36.963Z,96609.38
2022-09-28T10:42:08.124Z,96613.19
2022-09-28T10:44:48.560Z,96613.47
2022-09-28T10:47:32.732Z,96623.34
2022-09-28T10:49:59.643Z,96621.75
2022-09-28T10:52:39.835Z,96613.69
2022-09-28T10:55:26.218Z,96619.47
2022-09-28T10:57:53.193Z,96622.56
2022-09-28T11:00:30.206Z,96625.06
2022-09-28T11:03:41.852Z,96619.28
2022-09-28T11:06:08.802Z,96609.06
2022-09-28T11:08:38.881Z,96615.81
2022-09-28T11:11:09.866Z,96609.38
2022-09-28T11:13:56.625Z,96604.63
2022-09-28T11:16:32.689Z,96611.50
2022-09-28T11:19:06.809Z,96612.00
2022-09-28T11:21:42.946Z,96604.19
2022-09-28T11:24:18.933Z,96603.97
2022-09-28T11:26:46.871Z,96604.91
2022-09-28T11:29:43.657Z,96605.84
2022-09-28T11:32:41.140Z,96615.06
2022-09-28T11:35:54.094Z,96605.00
2022-09-28T11:38:40.596Z,96612.13
2022-09-28T11:41:47.430Z,96610.94
2022-09-28T11:44:23.131Z,96609.06
2022-09-28T11:47:10.677Z,96605.00
2022-09-28T11:50:24.121Z,96606.41
2022-09-28T11:52:55.976Z,96605.91
2022-09-28T11:55:40.893Z,96597.06
2022-09-28T11:59:13.488Z,96599.25
2022-09-28T12:01:52.539Z,96601.94
2022-09-28T12:05:17.197Z,96604.81
2022-09-28T12:07:50.379Z,96591.59
2022-09-28T12:10:48.158Z,96588.88
2022-09-28T12:13:20.576Z,96590.25
2022-09-28T12:17:04.156Z,96598.31
2022-09-28T12:19:38.646Z,96595.81
2022-09-28T12:22:13.799Z,96590.53
2022-09-28T12:24:46.270Z,96586.59
2022-09-28T12:27:14.726Z,96591.91
2022-09-28T12:29:44.512Z,96584.19
2022-09-28T12:32:24.149Z,96586.25
2022-09-28T12:34:50.906Z,96583.91
2022-09-28T12:37:20.213Z,96581.03
2022-09-28T12:40:03.375Z,96573.72
2022-09-28T12:42:56.537Z,96573.34
2022-09-28T12:45:42.894Z,96576.09
2022-09-28T12:48:20.895Z,96575.94
2022-09-28T12:51:04.357Z,96585.00
2022-09-28T12:53:38.786Z,96574.81
2022-09-28T12:56:11.733Z,96585.81
2022-09-28T12:59:01.114Z,96585.19
2022-09-28T13:01:37.389Z,96584.59
2022-09-28T13:04:35.452Z,96589.41
2022-09-28T13:07:06.606Z,96593.78
2022-09-28T13:09:53.441Z,96589.91
2022-09-28T13:13:14.016Z,96589.91
2022-09-28T13:16:07.633Z,96592.19
2022-09-28T13:18:37.288Z,96586.78
2022-09-28T13:21:21.503Z,96578.00
2022-09-28T13:23:50.448Z,96580.94
2022-09-28T13:26:26.179Z,96573.03
2022-09-28T13:28:56.030Z,96573.97
2022-09-28T13:31:30.871Z,96566.81
2022-09-28T13:34:03.152Z,96572.56
2022-09-28T13:36:30.431Z,96575.06
2022-09-28T13:38:59.573Z,96570.47
2022-09-28T13:41:29.803Z,96564.78
2022-09-28T13:44:23.792Z,96575.22
2022-09-28T13:47:00.258Z,96578.22
2022-09-28T13:49:31.082Z,96576.59
2022-09-28T13:52:02.744Z,96575.25
2022-09-28T13:54:43.454Z,96574.81
2022-09-28T13:57:36.124Z,96584.38
2022-09-28T14:00:25.387Z,96590.66
2022-09-28T14:03:01.488Z,96588.78
2022-09-28T14:05:58.931Z,96595.34
2022-09-28T14:08:38.875Z,96596.72
2022-09-28T14:11:34.232Z,96601.75
2022-09-28T14:14:13.920Z,96605.50
2022-09-28T14:16:41.758Z,96610.72
2022-09-28T14:19:10.346Z,96611.25
2022-09-28T14:21:48.883Z,96608.00
2022-09-28T14:24:43.843Z,96603.56
2022-09-28T14:27:17.312Z,96601.22
2022-09-28T14:29:44.186Z,96612.06
2022-09-28T14:32:11.073Z,96617.25
2022-09-28T14:34:43.043Z,96612.91
2022-09-28T14:37:46.179Z,96611.41
2022-09-28T14:40:50.710Z,96618.69
2022-09-28T14:43:26.303Z,96616.34
2022-09-28T14:46:10.019Z,96616.78
2022-09-28T14:48:47.952Z,96619.97
2022-09-28T14:51:26.562Z,96621.94
2022-09-28T14:53:54.799Z,96628.78
2022-09-28T14:56:21.821Z,96618.50
2022-09-28T14:58:54.020Z,96623.66
2022-09-28T15:01:22.853Z,96624.28
2022-09-28T15:03:52.291Z,96631.13
2022-09-28T15:06:22.863Z,96626.25
2022-09-28T15:08:52.679Z,96626.88
2022-09-28T15:11:24.364Z,96628.78
2022-09-28T15:13:55.705Z,96626.78
2022-09-28T15:16:23.903Z,96629.41
2022-09-28T15:18:58.108Z,96628.25
2022-09-28T15:21:32.876Z,96624.47
2022-09-28T15:23:59.551Z,96630.75
2022-09-28T15:26:31.261Z,96621.06
2022-09-28T15:28:58.886Z,96624.66
2022-09-28T15:31:27.147Z,96617.97
2022-09-28T15:34:12.501Z,96624.81
2022-09-28T15:36:43.363Z,96630.66
2022-09-28T15:39:16.221Z,96628.69
2022-09-28T15:41:44.157Z,96631.13
2022-09-28T15:44:10.613Z,96636.00
2022-09-28T15:46:42.856Z,96632.75
2022-09-28T15:49:25.598Z,96641.78
2022-09-28T15:52:02.981Z,96635.72
2022-09-28T15:54:36.615Z,96649.69
2022-09-28T15:57:03.363Z,96645.81
2022-09-28T15:59:38.194Z,96643.06
2022-09-28T16:02:20.661Z,96648.59
2022-09-28T16:04:51.700Z,96644.28
2022-09-28T16:07:18.399Z,96647.34
2022-09-28T16:09:56.067Z,96643.38
2022-09-28T16:12:23.991Z,96642.28
2022-09-28T16:14:53.575Z,96652.09
2022-09-28T16:17:38.391Z,96656.16
2022-09-28T16:20:20.386Z,96651.75
2022-09-28T16:22:46.910Z,96652.75
2022-09-28T16:25:23.851Z,96651.59
2022-09-28T16:27:51.787Z,96655.56
2022-09-28T16:30:24.271Z,96656.44
2022-09-28T16:32:53.800Z,96650.44
2022-09-28T16:35:22.804Z,96651.44
2022-09-28T16:37:57.753Z,96654.41
2022-09-28T16:40:24.412Z,96656.28
2022-09-28T16:42:51.574Z,96656.28
2022-09-28T16:45:23.784Z,96651.03
2022-09-28T16:47:54.513Z,96660.84
2022-09-28T16:50:21.772Z,96656.22
2022-09-28T16:53:17.388Z,96663.88
2022-09-28T16:55:44.672Z,96662.41
2022-09-28T16:58:11.419Z,96668.00
2022-09-28T17:00:38.096Z,96663.66
2022-09-28T17:03:16.220Z,96670.38
2022-09-28T17:05:43.055Z,96673.78
2022-09-28T17:08:13.624Z,96674.19
2022-09-28T17:11:13.943Z,96673.38
2022-09-28T17:13:41.351Z,96670.38
2022-09-28T17:16:36.706Z,96673.69
2022-09-28T17:19:20.705Z,96678.84
2022-09-28T17:21:47.686Z,96681.00
2022-09-28T17:24:14.369Z,96680.81
2022-09-28T17:26:43.744Z,96684.63
2022-09-28T17:29:14.345Z,96691.34
2022-09-28T17:31:42.827Z,96695.84
2022-09-28T17:34:11.085Z,96697.69
2022-09-28T17:36:37.940Z,96696.31
2022-09-28T17:39:05.018Z,96702.84
2022-09-28T17:41:32.176Z,96705.50
2022-09-28T17:44:00.145Z,96699.25
2022-09-28T17:46:27.219Z,96701.84
2022-09-28T17:48:54.625Z,96705.97
2022-09-28T17:51:22.486Z,96711.13
2022-09-28T17:53:49.226Z,96710.44
2022-09-28T17:56:16.196Z,96707.28
2022-09-28T17:58:42.830Z,96711.63
2022-09-28T18:01:09.855Z,96711.81
2022-09-28T18:03:36.713Z,96711.19
2022-09-28T18:06:03.624Z,96712.16
2022-09-28T18:08:30.759Z,96718.31
2022-09-28T18:10:57.317Z,96720.28
2022-09-28T18:13:24.875Z,96715.94
2022-09-28T18:15:52.372Z,96721.63
2022-09-28T18:18:19.174Z,96717.41
2022-09-28T18:20:45.821Z,96716.75
2022-09-28T18:23:12.424Z,96720.56
2022-09-28T18:25:40.670Z,96723.03
2022-09-28T18:28:07.492Z,96730.03
2022-09-28T18:30:38.248Z,96743.44
2022-09-28T18:33:05.085Z,96736.47
2022-09-28T18:35:31.646Z,96740.63
2022-09-28T18:37:58.480Z,96741.00
2022-09-28T18:40:25.414Z,96743.41
2022-09-28T18:42:52.607Z,96748.38
2022-09-28T18:45:19.326Z,96753.06
2022-09-28T18:47:45.866Z,96762.38
2022-09-28T18:50:12.997Z,96763.56
2022-09-28T18:52:39.729Z,96766.72
2022-09-28T18:55:07.669Z,96773.63
2022-09-28T18:57:34.823Z,96775.94
2022-09-28T19:00:07.660Z,96774.38
2022-09-28T19:02:34.607Z,96771.38
2022-09-28T19:05:01.218Z,96774.91
2022-09-28T19:07:27.753Z,96776.72
2022-09-28T19:09:54.343Z,96772.47
2022-09-28T19:12:20.975Z,96780.94
2022-09-28T19:14:47.569Z,96779.25
2022-09-28T19:17:14.179Z,96772.75
2022-09-28T19:19:42.667Z,96767.06
2022-09-28T19:22:09.391Z,96776.59
2022-09-28T19:24:36.017Z,96787.00
2022-09-28T19:27:02.608Z,96778.66
2022-09-28T19:29:29.298Z,96778.31
2022-09-28T19:31:56.987Z,96781.69
2022-09-28T19:34:26.851Z,96793.03
2022-09-28T19:36:53.547Z,96784.59
2022-09-28T19:39:20.117Z,96793.25
2022-09-28T19:41:51.187Z,96788.09
2022-09-28T19:44:27.646Z,96791.94
2022-09-28T19:46:59.235Z,96791.56
2022-09-28T19:49:27.390Z,96794.47
2022-09-28T19:52:14.199Z,96796.53
2022-09-28T19:54:56.795Z,96803.66
2022-09-28T19:57:25.040Z,96803.53
2022-09-28T19:59:53.725Z,96802.94
2022-09-28T20:02:21.902Z,96804.88
2022-09-28T20:04:48.856Z,96803.84
2022-09-28T20:07:15.707Z,96807.41
2022-09-28T20:09:42.325Z,96814.75
2022-09-28T20:12:09.453Z,96815.50
2022-09-28T20:14:40.135Z,96819.59
2022-09-28T20:17:07.509Z,96815.38
2022-09-28T20:19:35.022Z,96825.69
2022-09-28T20:22:02.973Z,96821.97
2022-09-28T20:24:30.376Z,96828.50
2022-09-28T20:26:58.041Z,96822.63
2022-09-28T20:29:25.093Z,96820.09
2022-09-28T20:31:51.933Z,96824.81
2022-09-28T20:34:18.720Z,96827.94
2022-09-28T20:36:45.327Z,96827.34
2022-09-28T20:39:12.233Z,96828.22
2022-09-28T20:41:40.348Z,96828.34
2022-09-28T20:44:07.315Z,96825.78
2022-09-28T20:46:35.273Z,96830.75
2022-09-28T20:49:02.016Z,96835.56
2022-09-28T20:51:28.673Z,96836.31
2022-09-28T20:53:57.314Z,96840.66
2022-09-28T20:56:25.931Z,96845.22
2022-09-28T20:58:56.845Z,96842.56
2022-09-28T21:01:25.421Z,96835.56
2022-09-28T21:03:54.730Z,96832.53
2022-09-28T21:06:23.196Z,96838.31
2022-09-28T21:08:50.133Z,96839.53
2022-09-28T21:11:18.790Z,96838.78
2022-09-28T21:13:45.802Z,96833.59
2022-09-28T21:16:14.969Z,96832.94
2022-09-28T21:18:42.207Z,96837.41
2022-09-28T21:21:14.356Z,96830.75
2022-09-28T21:23:41.093Z,96831.63
2022-09-28T21:26:10.575Z,96832.31
2022-09-28T21:28:37.634Z,96825.78
2022-09-28T21:31:10.259Z,96831.63
2022-09-28T21:33:37.230Z,96829.16
2022-09-28T21:36:06.280Z,96824.38
2022-09-28T21:38:33.691Z,96829.22
2022-09-28T21:41:00.282Z,96826.41
2022-09-28T21:43:28.324Z,96835.47
2022-09-28T21:45:55.105Z,96828.22
2022-09-28T21:48:23.287Z,96831.69
2022-09-28T21:50:56.715Z,96838.63
2022-09-28T21:53:29.002Z,96829.31
2022-09-28T21:55:58.141Z,96828.84
2022-09-28T21:58:26.927Z,96825.94
2022-09-28T22:01:01.194Z,96823.47
2022-09-28T22:03:29.179Z,96823.28
2022-09-28T22:05:55.802Z,96817.38
2022-09-28T22:08:22.780Z,96820.41
2022-09-28T22:11:03.016Z,96821.88
2022-09-28T22:13:30.951Z,96824.31
2022-09-28T22:15:58.763Z,96822.88
2022-09-28T22:18:26.553Z,96822.28
2022-09-28T22:21:06.422Z,96820.22
2022-09-28T22:23:33.707Z,96826.03
2022-09-28T22:26:01.133Z,96823.25
2022-09-28T22:28:28.005Z,96827.47
2022-09-28T22:30:55.208Z,96824.81
2022-09-28T22:33:22.164Z,96825.69
2022-09-28T22:35:51.060Z,96823.38
2022-09-28T22:38:19.115Z,96814.59
2022-09-28T22:40:52.918Z,96825.44
2022-09-28T22:43:19.619Z,96818.06
2022-09-28T22:45:46.289Z,96816.16
2022-09-28T22:48:13.269Z,96824.13
2022-09-28T22:50:48.067Z,96822.16
2022-09-28T22:53:15.073Z,96820.22
2022-09-28T22:55:41.865Z,96817.31
2022-09-28T22:58:08.516Z,96825.06
2022-09-28T23:00:35.207Z,96819.59
2022-09-28T23:03:01.847Z,96815.59
2022-09-28T23:05:28.503Z,96810.38
2022-09-28T23:07:55.051Z,96815.56
2022-09-28T23:10:21.558Z,96820.13
2022-09-28T23:12:48.168Z,96813.16
2022-09-28T23:15:15.342Z,96819.72
2022-09-28T23:17:41.883Z,96822.09
2022-09-28T23:20:08.768Z,96823.28
2022-09-28T23:22:35.412Z,96820.13
2022-09-28T23:25:01.986Z,96823.34
2022-09-28T23:27:28.574Z,96822.75
2022-09-28T23:29:55.123Z,96828.13
2022-09-28T23:32:21.658Z,96827.91
2022-09-28T23:34:48.296Z,96827.38
2022-09-28T23:37:14.822Z,96831.72
2022-09-28T23:39:42.287Z,96826.06
2022-09-28T23:42:08.840Z,96821.44
2022-09-28T23:44:35.797Z,96829.81
2022-09-28T23:47:02.449Z,96824.19
2022-09-28T23:49:29.628Z,96827.84
2022-09-28T23:51:56.217Z,96828.41
2022-09-28T23:54:22.833Z,96822.28
2022-09-28T23:56:49.518Z,96828.81
2022-09-28T23:59:16.299Z,96826.00
